Time;durP1;ratioP1;P1;durP2;ratioP2;P2;SDS_P1;SDS_P2;PMS_P1;PMS_P2;Temp;Humidity;BMP_temperature;BMP_pressure;BME280_temperature;BME280_humidity;BME280_pressure;Samples;Min_cycle;Max_cycle;Signal;HPM_P1;HPM_P2
2021/06/25 00:01:03;;;;;;;21.45;14.20;;;19.40;99.90;;;;;;4172360;28;20095;-71
2021/06/25 00:03:03;;;;;;;19.60;13.70;;;19.30;99.90;;;;;;4171827;28;20538;-71
2021/06/25 00:05:06;;;;;;;16.08;12.52;;;19.30;99.90;;;;;;4174106;28;20116;-71
2021/06/25 00:07:07;;;;;;;20.17;15.05;;;19.20;99.90;;;;;;4174077;28;20155;-71
2021/06/25 00:09:07;;;;;;;14.88;11.60;;;19.20;99.90;;;;;;4174106;28;20036;-71
2021/06/25 00:11:08;;;;;;;16.38;12.02;;;19.20;99.90;;;;;;4174812;28;20417;-71
2021/06/25 00:13:08;;;;;;;13.70;10.60;;;19.20;99.90;;;;;;4174006;28;20477;-71
2021/06/25 00:15:11;;;;;;;16.33;11.55;;;19.10;99.90;;;;;;4174428;28;20112;-71
2021/06/25 00:17:11;;;;;;;15.95;11.85;;;19.20;99.90;;;;;;4173727;28;20073;-71
2021/06/25 00:19:12;;;;;;;13.93;10.07;;;19.20;99.90;;;;;;4173658;28;20627;-71
2021/06/25 00:21:12;;;;;;;13.68;10.93;;;19.20;99.90;;;;;;4173087;28;20033;-71
2021/06/25 00:23:13;;;;;;;16.75;11.77;;;19.20;99.90;;;;;;4174292;28;20060;-71
2021/06/25 00:25:14;;;;;;;20.40;14.30;;;19.20;99.90;;;;;;4171874;28;20071;-71
2021/06/25 00:27:14;;;;;;;14.57;10.85;;;19.10;99.90;;;;;;4174138;28;20053;-71
2021/06/25 00:29:15;;;;;;;13.57;10.20;;;18.90;99.90;;;;;;4175407;28;20041;-71
2021/06/25 00:31:15;;;;;;;18.73;10.80;;;18.90;99.90;;;;;;4173908;28;20033;-71
2021/06/25 00:33:16;;;;;;;17.55;9.55;;;18.90;99.90;;;;;;4173407;28;20029;-71
2021/06/25 00:35:16;;;;;;;15.40;10.52;;;18.80;99.90;;;;;;4174051;28;20040;-71
2021/06/25 00:37:17;;;;;;;15.00;10.10;;;18.80;99.90;;;;;;4173543;28;20095;-71
2021/06/25 00:39:17;;;;;;;13.10;9.70;;;18.80;99.90;;;;;;4173381;28;20063;-71
2021/06/25 00:41:18;;;;;;;12.23;8.93;;;18.70;99.90;;;;;;4172169;28;20034;-71
2021/06/25 00:43:19;;;;;;;13.02;10.35;;;18.70;99.90;;;;;;4173611;28;20037;-71
2021/06/25 00:45:20;;;;;;;11.50;9.20;;;18.70;99.90;;;;;;4174032;28;20068;-71
2021/06/25 00:47:20;;;;;;;9.60;8.60;;;18.60;99.90;;;;;;4175500;28;20586;-71
2021/06/25 00:49:21;;;;;;;12.07;8.63;;;18.70;99.90;;;;;;4176621;28;20044;-71
2021/06/25 00:51:22;;;;;;;10.88;8.82;;;18.70;99.90;;;;;;4181297;28;20039;-71
2021/06/25 00:53:22;;;;;;;12.32;9.73;;;18.60;99.90;;;;;;4177131;28;20120;-71
2021/06/25 00:55:24;;;;;;;11.98;8.80;;;18.60;99.90;;;;;;4176872;28;20052;-71
2021/06/25 00:57:25;;;;;;;12.25;9.55;;;18.60;99.90;;;;;;4175179;28;20037;-71
2021/06/25 00:59:26;;;;;;;11.48;9.55;;;18.60;99.90;;;;;;4161337;28;21362;-71
2021/06/25 01:01:26;;;;;;;11.27;9.13;;;18.60;99.90;;;;;;4176195;28;20037;-71
2021/06/25 01:03:27;;;;;;;12.43;9.32;;;18.60;99.90;;;;;;4176408;28;20029;-71
2021/06/25 01:05:28;;;;;;;10.18;8.20;;;18.50;99.90;;;;;;4176828;28;20045;-71
2021/06/25 01:07:31;;;;;;;13.00;8.80;;;18.50;99.90;;;;;;4176677;28;20408;-71
2021/06/25 01:09:35;;;;;;;12.55;8.88;;;18.50;99.90;;;;;;4174889;28;20110;-71
2021/06/25 01:11:36;;;;;;;13.23;8.68;;;18.50;99.90;;;;;;4176377;28;20122;-71
2021/06/25 01:13:40;;;;;;;10.00;8.02;;;18.50;99.90;;;;;;4176827;28;20136;-71
2021/06/25 01:15:41;;;;;;;9.75;8.07;;;18.50;99.90;;;;;;4174706;28;20033;-71
2021/06/25 01:17:43;;;;;;;12.40;8.77;;;18.50;99.90;;;;;;4173095;28;20091;-71
2021/06/25 01:19:47;;;;;;;10.23;8.88;;;18.40;99.90;;;;;;4176594;28;20041;-71
2021/06/25 01:21:48;;;;;;;10.38;8.07;;;18.50;99.90;;;;;;4174853;28;20033;-71
2021/06/25 01:23:49;;;;;;;11.77;7.65;;;18.40;99.90;;;;;;4176103;28;20044;-71
2021/06/25 01:25:50;;;;;;;10.18;8.35;;;18.40;99.90;;;;;;4176447;28;20437;-71
2021/06/25 01:27:53;;;;;;;10.15;7.95;;;18.40;99.90;;;;;;4176722;28;20037;-71
2021/06/25 01:29:58;;;;;;;11.07;8.43;;;18.40;99.90;;;;;;4176013;28;20033;-71
2021/06/25 01:31:59;;;;;;;11.15;8.90;;;18.50;99.90;;;;;;4175967;28;20053;-71
2021/06/25 01:34:00;;;;;;;9.15;7.78;;;18.40;99.90;;;;;;4176361;28;20052;-71
2021/06/25 01:36:01;;;;;;;13.10;9.10;;;18.40;99.90;;;;;;4176191;28;20120;-71
2021/06/25 01:38:03;;;;;;;12.82;8.93;;;18.40;99.90;;;;;;4176229;28;20515;-71
2021/06/25 01:40:05;;;;;;;10.75;8.98;;;18.40;99.90;;;;;;4174414;28;20049;-71
2021/06/25 01:42:07;;;;;;;11.18;8.63;;;18.40;99.90;;;;;;4175034;28;20416;-71
2021/06/25 01:44:08;;;;;;;10.43;8.45;;;18.30;99.90;;;;;;4176280;28;20048;-71
2021/06/25 01:46:14;;;;;;;12.00;8.75;;;18.30;99.90;;;;;;4172821;28;20072;-71
2021/06/25 01:48:14;;;;;;;11.23;9.38;;;18.30;99.90;;;;;;4174756;28;20385;-71
2021/06/25 01:50:19;;;;;;;11.10;8.90;;;18.30;99.90;;;;;;4174024;28;20041;-71
2021/06/25 01:52:20;;;;;;;10.82;8.98;;;18.30;99.90;;;;;;4174297;28;20068;-71
2021/06/25 01:54:21;;;;;;;9.70;8.52;;;18.30;99.90;;;;;;4175972;28;20619;-71
2021/06/25 01:56:23;;;;;;;9.65;8.13;;;18.30;99.90;;;;;;4175351;28;20079;-71
2021/06/25 01:58:26;;;;;;;12.93;8.73;;;18.30;99.90;;;;;;4173612;28;20488;-71
2021/06/25 02:00:27;;;;;;;9.00;8.00;;;18.30;99.90;;;;;;4174725;28;20032;-71
2021/06/25 02:02:28;;;;;;;11.30;9.38;;;18.20;99.90;;;;;;4174660;28;20034;-71
2021/06/25 02:04:28;;;;;;;10.10;8.23;;;18.20;99.90;;;;;;4174032;28;20099;-71
2021/06/25 02:06:29;;;;;;;11.50;9.07;;;18.20;99.90;;;;;;4166425;28;20060;-71
2021/06/25 02:08:30;;;;;;;11.00;8.68;;;18.20;99.90;;;;;;4169947;28;20025;-71
2021/06/25 02:10:31;;;;;;;9.73;8.73;;;18.20;99.90;;;;;;4170075;28;20112;-71
2021/06/25 02:12:32;;;;;;;11.60;8.80;;;18.20;99.90;;;;;;4173251;28;20508;-71
2021/06/25 02:14:33;;;;;;;12.50;9.45;;;18.20;99.90;;;;;;4164938;28;20033;-71
2021/06/25 02:16:33;;;;;;;10.77;8.55;;;18.20;99.90;;;;;;4170773;28;20095;-71
2021/06/25 02:18:34;;;;;;;9.75;8.30;;;18.20;99.90;;;;;;4167681;28;20116;-71
2021/06/25 02:20:35;;;;;;;10.00;8.02;;;18.20;99.90;;;;;;4167836;28;20049;-71
2021/06/25 02:22:36;;;;;;;8.55;7.57;;;18.10;99.90;;;;;;4174864;28;20458;-71
2021/06/25 02:24:37;;;;;;;9.15;7.53;;;18.10;99.90;;;;;;4170018;28;20052;-71
2021/06/25 02:26:38;;;;;;;9.35;7.78;;;18.10;99.90;;;;;;4168639;28;20041;-71
2021/06/25 02:28:38;;;;;;;11.02;8.20;;;18.10;99.90;;;;;;4167188;28;20044;-71
2021/06/25 02:30:39;;;;;;;9.32;8.02;;;18.10;99.90;;;;;;4165947;28;20049;-71
2021/06/25 02:32:40;;;;;;;9.60;8.32;;;18.10;99.90;;;;;;4164939;28;20821;-71
2021/06/25 02:34:40;;;;;;;11.20;8.38;;;18.10;99.90;;;;;;4171302;28;20451;-71
2021/06/25 02:36:41;;;;;;;12.23;9.13;;;18.00;99.90;;;;;;4169599;28;20095;-71
2021/06/25 02:38:41;;;;;;;10.65;8.77;;;18.00;99.90;;;;;;4169211;28;20040;-71
2021/06/25 02:40:43;;;;;;;10.68;9.40;;;18.00;99.90;;;;;;4172216;28;20090;-71
2021/06/25 02:42:43;;;;;;;10.10;8.63;;;17.90;99.90;;;;;;4151982;28;20080;-71
2021/06/25 02:44:44;;;;;;;12.75;9.68;;;17.90;99.90;;;;;;4173178;28;20124;-71
2021/06/25 02:46:44;;;;;;;13.48;10.13;;;17.90;99.90;;;;;;4170505;28;20536;-71
2021/06/25 02:48:45;;;;;;;11.75;9.88;;;17.90;99.90;;;;;;4171539;28;20043;-71
2021/06/25 02:50:46;;;;;;;12.02;10.07;;;17.80;99.90;;;;;;4167083;28;20140;-71
2021/06/25 02:52:47;;;;;;;15.52;10.02;;;17.80;99.90;;;;;;4172649;28;20689;-71
2021/06/25 02:54:47;;;;;;;12.25;9.23;;;17.80;99.90;;;;;;4170453;28;20065;-71
2021/06/25 02:56:48;;;;;;;16.55;9.70;;;17.80;99.90;;;;;;4170460;28;20622;-71
2021/06/25 02:58:48;;;;;;;11.13;9.35;;;17.70;99.90;;;;;;4172943;28;20474;-71
2021/06/25 03:00:50;;;;;;;13.05;9.85;;;17.70;99.90;;;;;;4167675;28;20036;-71
2021/06/25 03:02:51;;;;;;;13.32;9.15;;;17.70;99.90;;;;;;4171155;28;20062;-71
2021/06/25 03:04:51;;;;;;;11.07;9.82;;;17.70;99.90;;;;;;4165566;28;20774;-71
2021/06/25 03:06:52;;;;;;;14.52;9.75;;;17.70;99.90;;;;;;4164534;28;20684;-71
2021/06/25 03:08:52;;;;;;;12.20;10.15;;;17.60;99.90;;;;;;4163978;28;20045;-71
2021/06/25 03:10:53;;;;;;;11.10;9.63;;;17.60;99.90;;;;;;4172080;28;20045;-71
2021/06/25 03:12:54;;;;;;;12.52;9.88;;;17.60;99.90;;;;;;4173697;28;20751;-71
2021/06/25 03:14:54;;;;;;;11.70;9.98;;;17.60;99.90;;;;;;4174453;28;20046;-71
2021/06/25 03:16:55;;;;;;;13.95;10.95;;;17.50;99.90;;;;;;4170772;28;20037;-72
2021/06/25 03:18:56;;;;;;;12.73;10.10;;;17.40;99.90;;;;;;4174816;28;20178;-71
2021/06/25 03:20:57;;;;;;;11.52;10.05;;;17.40;99.90;;;;;;4175169;28;20067;-71
2021/06/25 03:22:58;;;;;;;11.35;9.30;;;17.40;99.90;;;;;;4172795;28;20041;-71
2021/06/25 03:24:58;;;;;;;14.13;11.13;;;17.40;99.90;;;;;;4172819;28;20111;-71
2021/06/25 03:26:59;;;;;;;11.48;9.63;;;17.30;99.90;;;;;;4174786;28;20109;-71
2021/06/25 03:29:00;;;;;;;11.18;9.95;;;17.30;99.90;;;;;;4174929;28;20037;-71
2021/06/25 03:31:02;;;;;;;12.32;10.50;;;17.30;99.90;;;;;;4172659;28;20140;-71
2021/06/25 03:33:03;;;;;;;11.77;9.77;;;17.30;99.90;;;;;;4172703;28;20116;-71
2021/06/25 03:35:06;;;;;;;11.38;9.93;;;17.30;99.90;;;;;;4175067;28;20044;-71
2021/06/25 03:37:07;;;;;;;;;;;17.20;99.90;;;;;;4173140;28;20080;-71
2021/06/25 03:39:07;;;;;;;11.60;10.00;;;17.20;99.90;;;;;;4172116;28;19974;-71
2021/06/25 03:41:08;;;;;;;13.20;10.52;;;17.20;99.90;;;;;;4175042;28;21245;-71
2021/06/25 03:43:09;;;;;;;10.77;9.43;;;17.20;99.90;;;;;;4156431;28;20037;-70
2021/06/25 03:45:11;;;;;;;12.35;9.75;;;17.20;99.90;;;;;;4174243;28;20504;-71
2021/06/25 03:47:12;;;;;;;14.23;10.18;;;17.20;99.90;;;;;;4170558;28;20041;-71
2021/06/25 03:49:13;;;;;;;11.38;9.32;;;17.10;99.90;;;;;;4173809;28;20138;-71
2021/06/25 03:51:13;;;;;;;11.60;9.60;;;17.10;99.90;;;;;;4174166;28;20037;-71
2021/06/25 03:53:14;;;;;;;11.57;9.65;;;17.10;99.90;;;;;;4174180;28;20366;-71
2021/06/25 03:55:15;;;;;;;11.70;10.13;;;17.10;99.90;;;;;;4174709;28;20044;-71
2021/06/25 03:57:15;;;;;;;11.38;9.10;;;17.10;99.90;;;;;;4174249;28;20476;-71
2021/06/25 03:59:16;;;;;;;10.70;8.85;;;17.10;99.90;;;;;;4174505;28;20124;-71
2021/06/25 04:01:19;;;;;;;11.85;9.85;;;17.00;99.90;;;;;;4173501;28;20163;-71
2021/06/25 04:03:19;;;;;;;13.32;9.52;;;17.00;99.90;;;;;;4172203;28;20045;-71
2021/06/25 04:05:20;;;;;;;13.85;11.00;;;17.00;99.90;;;;;;4174171;28;20060;-71
2021/06/25 04:07:22;;;;;;;12.18;9.98;;;17.00;99.90;;;;;;4173206;28;20033;-71
2021/06/25 04:09:22;;;;;;;14.77;11.15;;;16.90;99.90;;;;;;4172771;28;20041;-71
2021/06/25 04:11:23;;;;;;;14.38;11.05;;;16.90;99.90;;;;;;4174158;28;20048;-71
2021/06/25 04:13:25;;;;;;;13.00;10.85;;;16.90;99.90;;;;;;4174133;28;20029;-71
2021/06/25 04:15:26;;;;;;;13.30;11.80;;;16.90;99.90;;;;;;4171889;28;20033;-71
2021/06/25 04:17:27;;;;;;;16.25;12.90;;;16.80;99.90;;;;;;4156110;28;20033;-71
2021/06/25 04:19:27;;;;;;;16.23;13.43;;;16.80;99.90;;;;;;4173516;28;20473;-71
2021/06/25 04:21:28;;;;;;;20.38;13.55;;;16.80;99.90;;;;;;4172518;28;20481;-71
2021/06/25 04:23:29;;;;;;;17.70;13.02;;;16.70;99.90;;;;;;4172809;28;20029;-71
2021/06/25 04:25:29;;;;;;;18.65;12.85;;;16.70;99.90;;;;;;4173219;28;20428;-71
2021/06/25 04:27:30;;;;;;;16.70;12.95;;;16.70;99.90;;;;;;4170939;28;20106;-71
2021/06/25 04:29:32;;;;;;;17.42;13.75;;;16.60;99.90;;;;;;4174136;28;20120;-71
2021/06/25 04:31:33;;;;;;;15.27;12.75;;;16.60;99.90;;;;;;4155972;28;20053;-71
2021/06/25 04:33:35;;;;;;;17.33;13.63;;;16.60;99.90;;;;;;4173895;28;20049;-71
2021/06/25 04:35:36;;;;;;;15.45;12.15;;;16.60;99.90;;;;;;4173880;28;20040;-71
2021/06/25 04:37:36;;;;;;;17.75;13.80;;;16.60;99.90;;;;;;4173169;28;20033;-71
2021/06/25 04:39:37;;;;;;;15.48;13.00;;;16.60;99.90;;;;;;4173837;28;20041;-71
2021/06/25 04:41:38;;;;;;;23.70;14.02;;;16.60;99.90;;;;;;4174051;28;20493;-71
2021/06/25 04:43:38;;;;;;;18.00;14.02;;;16.60;99.90;;;;;;4174261;28;20044;-71
2021/06/25 04:45:40;;;;;;;15.40;13.15;;;16.60;99.90;;;;;;4172472;28;20041;-71
2021/06/25 04:47:42;;;;;;;15.95;13.00;;;16.60;99.90;;;;;;4173439;28;20465;-71
2021/06/25 04:49:43;;;;;;;18.25;15.13;;;16.60;99.90;;;;;;4173678;28;20040;-71
2021/06/25 04:51:43;;;;;;;17.92;13.18;;;16.60;99.90;;;;;;4174345;28;20033;-71
2021/06/25 04:53:44;;;;;;;19.42;13.52;;;16.60;99.90;;;;;;4172169;28;20043;-71
2021/06/25 04:55:45;;;;;;;19.35;14.20;;;16.60;99.90;;;;;;4174852;28;20053;-70
2021/06/25 04:57:50;;;;;;;19.50;14.50;;;16.60;99.90;;;;;;4172729;28;20492;-71
2021/06/25 04:59:51;;;;;;;16.80;13.48;;;16.50;99.90;;;;;;4170793;28;20052;-72
2021/06/25 05:01:52;;;;;;;17.75;13.45;;;16.60;99.90;;;;;;4166784;28;20201;-72
2021/06/25 05:03:52;;;;;;;19.48;14.32;;;16.60;99.90;;;;;;4168824;28;20037;-72
2021/06/25 05:05:53;;;;;;;20.33;14.88;;;16.50;99.90;;;;;;4168015;28;20473;-72
2021/06/25 05:07:53;;;;;;;22.38;16.20;;;16.50;99.90;;;;;;4168003;28;20044;-72
2021/06/25 05:09:54;;;;;;;15.57;13.30;;;16.50;99.90;;;;;;4165906;28;20595;-72
2021/06/25 05:11:55;;;;;;;20.23;14.00;;;16.50;99.90;;;;;;4168662;28;20033;-72
2021/06/25 05:13:55;;;;;;;16.75;13.98;;;16.50;99.90;;;;;;4169253;28;20033;-72
2021/06/25 05:15:56;;;;;;;17.20;14.10;;;16.50;99.90;;;;;;4169097;28;20033;-72
2021/06/25 05:17:56;;;;;;;16.88;13.80;;;16.50;99.90;;;;;;4165877;28;20531;-72
2021/06/25 05:19:57;;;;;;;17.38;13.80;;;16.50;99.90;;;;;;4167624;28;20048;-72
2021/06/25 05:21:58;;;;;;;17.50;13.82;;;16.50;99.90;;;;;;4166207;28;20731;-72
2021/06/25 05:23:58;;;;;;;17.45;13.70;;;16.50;99.90;;;;;;4152408;28;20033;-72
2021/06/25 05:25:59;;;;;;;19.30;14.35;;;16.60;99.90;;;;;;4163918;28;20067;-72
2021/06/25 05:28:00;;;;;;;17.05;12.93;;;16.60;99.90;;;;;;4165630;28;20405;-72
2021/06/25 05:30:01;;;;;;;18.20;14.10;;;16.60;99.90;;;;;;4165948;28;20116;-72
2021/06/25 05:32:02;;;;;;;17.52;13.40;;;16.60;99.90;;;;;;4164831;28;20113;-72
2021/06/25 05:34:02;;;;;;;19.35;14.73;;;16.70;99.90;;;;;;4170640;28;20585;-72
2021/06/25 05:36:03;;;;;;;18.73;14.45;;;16.70;99.90;;;;;;4170040;28;20041;-72
2021/06/25 05:38:08;;;;;;;18.20;14.60;;;16.60;99.90;;;;;;4166198;28;20080;-72
2021/06/25 05:40:10;;;;;;;18.13;13.80;;;16.70;99.90;;;;;;4169479;28;20033;-72
2021/06/25 05:42:10;;;;;;;21.48;15.52;;;16.80;99.90;;;;;;4163619;28;20435;-72
2021/06/25 05:44:11;;;;;;;18.55;14.63;;;16.80;99.90;;;;;;4169367;28;20125;-72
2021/06/25 05:46:12;;;;;;;25.05;16.67;;;16.80;99.90;;;;;;4167128;28;20405;-72
2021/06/25 05:48:12;;;;;;;18.65;14.63;;;16.80;99.90;;;;;;4168935;28;20036;-72
2021/06/25 05:50:15;;;;;;;23.15;15.88;;;17.00;99.90;;;;;;4168724;28;20128;-72
2021/06/25 05:52:16;;;;;;;;;;;17.20;99.90;;;;;;4167309;28;20132;-72
2021/06/25 05:54:17;;;;;;;26.33;17.40;;;17.50;99.90;;;;;;4167570;28;19948;-70
2021/06/25 05:56:17;;;;;;;24.70;17.70;;;17.70;99.90;;;;;;4167780;28;20044;-70
2021/06/25 05:58:18;;;;;;;25.25;17.38;;;18.00;99.90;;;;;;4167931;28;20041;-70
2021/06/25 06:00:19;;;;;;;24.25;18.30;;;18.10;99.90;;;;;;4165323;28;20048;-70
2021/06/25 06:02:19;;;;;;;21.83;15.70;;;18.40;99.90;;;;;;4166664;28;20072;-70
2021/06/25 06:04:20;;;;;;;26.63;18.05;;;18.50;99.90;;;;;;4167784;28;20052;-70
2021/06/25 06:06:20;;;;;;;22.92;16.92;;;18.70;99.90;;;;;;4168537;28;20035;-70
2021/06/25 06:08:21;;;;;;;26.92;17.45;;;19.00;99.90;;;;;;4167385;28;20499;-70
2021/06/25 06:10:22;;;;;;;25.60;16.58;;;19.20;99.90;;;;;;4167341;28;20045;-70
2021/06/25 06:12:22;;;;;;;26.65;17.65;;;19.40;99.90;;;;;;4169095;28;20048;-70
2021/06/25 06:14:23;;;;;;;21.98;15.35;;;19.60;99.90;;;;;;4164891;28;20552;-70
2021/06/25 06:16:24;;;;;;;27.08;18.15;;;19.60;99.90;;;;;;4168928;28;20040;-70
2021/06/25 06:18:37;;;;;;;25.48;16.35;;;19.70;99.90;;;;;;4165745;28;20028;-70
2021/06/25 06:20:37;;;;;;;22.52;17.35;;;19.80;99.90;;;;;;4166202;28;20040;-70
2021/06/25 06:32:01;;;;;;;21.10;15.43;;;19.80;99.90;;;;;;4164943;28;20060;-70
2021/06/25 06:34:11;;;;;;;18.95;13.82;;;19.70;99.90;;;;;;4166154;28;20029;-70
2021/06/25 06:36:27;;;;;;;23.08;15.45;;;19.70;99.90;;;;;;4146831;28;20077;-70
2021/06/25 06:38:29;;;;;;;21.75;15.35;;;19.80;99.90;;;;;;4161639;28;20056;-70
2021/06/25 06:40:30;;;;;;;22.48;17.00;;;19.80;99.90;;;;;;4167208;28;20025;-70
2021/06/25 06:42:31;;;;;;;25.52;16.33;;;19.80;99.90;;;;;;4165877;28;20028;-69
2021/06/25 06:44:32;;;;;;;25.73;15.48;;;19.70;99.90;;;;;;4167283;28;20163;-70
2021/06/25 06:46:34;;;;;;;21.20;14.57;;;19.70;99.90;;;;;;4164227;28;20477;-69
2021/06/25 06:48:36;;;;;;;22.52;15.48;;;19.70;99.90;;;;;;4165766;28;20032;-70
2021/06/25 06:50:37;;;;;;;22.25;14.15;;;19.70;99.90;;;;;;4167304;28;20041;-70
2021/06/25 06:52:45;;;;;;;16.90;12.35;;;19.70;99.90;;;;;;4165878;28;20565;-70
2021/06/25 06:54:45;;;;;;;19.25;12.98;;;19.70;99.90;;;;;;4168847;28;20045;-70
2021/06/25 06:56:46;;;;;;;19.08;13.38;;;19.70;99.90;;;;;;4164151;28;20091;-70
2021/06/25 06:58:48;;;;;;;20.33;14.88;;;19.70;99.90;;;;;;4165337;28;20401;-69
2021/06/25 07:00:49;;;;;;;21.40;13.35;;;19.80;99.90;;;;;;4163766;28;20048;-69
2021/06/25 07:02:49;;;;;;;17.70;12.52;;;19.70;99.90;;;;;;4156794;28;20032;-70
2021/06/25 07:04:50;;;;;;;18.92;13.98;;;19.80;99.90;;;;;;4167073;28;20069;-69
2021/06/25 07:06:51;;;;;;;18.02;12.60;;;19.70;99.90;;;;;;4162657;28;20041;-69
2021/06/25 07:08:51;;;;;;;23.38;14.38;;;19.70;99.90;;;;;;4164663;28;20055;-70
2021/06/25 07:10:52;;;;;;;16.70;11.88;;;19.60;99.90;;;;;;4167299;28;20508;-69
2021/06/25 07:12:52;;;;;;;28.63;14.85;;;19.70;99.90;;;;;;4166293;28;20055;-69
2021/06/25 07:14:53;;;;;;;17.60;13.20;;;19.60;99.90;;;;;;4165956;28;20110;-69
2021/06/25 07:16:54;;;;;;;15.23;11.40;;;19.50;99.90;;;;;;4166456;28;20112;-69
2021/06/25 07:18:54;;;;;;;16.77;11.07;;;19.50;99.90;;;;;;4149792;28;20064;-69
2021/06/25 07:20:55;;;;;;;21.00;13.20;;;19.50;99.90;;;;;;4167649;28;20142;-70
2021/06/25 07:22:55;;;;;;;22.13;12.23;;;19.50;99.90;;;;;;4166442;28;20341;-69
2021/06/25 07:24:56;;;;;;;15.40;11.48;;;19.50;99.90;;;;;;4165359;28;20119;-69
2021/06/25 07:26:57;;;;;;;16.30;11.07;;;19.40;99.90;;;;;;4166633;28;20097;-69
2021/06/25 07:28:58;;;;;;;21.85;12.80;;;19.50;99.90;;;;;;4166529;28;20031;-69
2021/06/25 07:30:58;;;;;;;18.98;13.00;;;19.60;99.90;;;;;;4164718;28;20036;-70
2021/06/25 07:32:59;;;;;;;18.40;13.63;;;19.50;99.90;;;;;;4162467;28;20538;-70
2021/06/25 07:35:00;;;;;;;16.98;13.38;;;19.40;99.90;;;;;;4165225;28;20040;-70
2021/06/25 07:37:00;;;;;;;15.82;11.10;;;19.50;99.90;;;;;;4166045;28;20527;-69
2021/06/25 07:39:01;;;;;;;18.80;11.57;;;19.50;99.90;;;;;;4163203;28;20068;-70
2021/06/25 07:41:02;;;;;;;17.60;12.07;;;19.60;99.90;;;;;;4164882;28;20068;-69
2021/06/25 07:43:03;;;;;;;20.65;10.85;;;19.60;99.90;;;;;;4165731;28;20041;-69
2021/06/25 07:45:10;;;;;;;21.00;14.05;;;19.60;99.90;;;;;;4164456;28;20045;-70
2021/06/25 07:47:11;;;;;;;15.30;11.68;;;19.60;99.90;;;;;;4161244;28;20114;-69
2021/06/25 07:49:11;;;;;;;18.42;12.02;;;19.60;99.90;;;;;;4163059;28;20056;-69
2021/06/25 07:51:12;;;;;;;15.52;11.48;;;19.60;99.90;;;;;;4167142;28;20037;-69
2021/06/25 07:53:13;;;;;;;15.57;11.65;;;19.60;99.90;;;;;;4162388;28;20103;-69
2021/06/25 07:55:15;;;;;;;19.05;12.20;;;19.70;99.90;;;;;;4165166;28;20103;-69
2021/06/25 07:57:16;;;;;;;15.98;11.80;;;19.60;99.90;;;;;;4168542;28;20048;-69
2021/06/25 07:59:16;;;;;;;17.05;12.50;;;19.60;99.90;;;;;;4167789;28;20530;-69
2021/06/25 08:01:17;;;;;;;17.83;10.98;;;19.50;99.90;;;;;;4141545;28;20041;-69
2021/06/25 08:03:18;;;;;;;15.70;11.07;;;19.60;99.90;;;;;;4166609;28;20131;-70
2021/06/25 08:05:19;;;;;;;19.13;11.40;;;19.50;99.90;;;;;;4165410;28;20123;-69
2021/06/25 08:07:19;;;;;;;16.20;11.05;;;19.60;99.90;;;;;;4165216;28;20632;-69
2021/06/25 08:09:20;;;;;;;15.20;11.07;;;19.60;99.90;;;;;;4164911;28;20503;-69
2021/06/25 08:11:21;;;;;;;19.02;11.57;;;19.60;99.90;;;;;;4162465;28;20045;-69
2021/06/25 08:13:22;;;;;;;15.90;11.65;;;19.70;99.90;;;;;;4163883;28;20088;-69
2021/06/25 08:15:22;;;;;;;15.40;11.32;;;19.60;99.90;;;;;;4166758;28;20041;-69
2021/06/25 08:17:24;;;;;;;13.63;10.23;;;19.70;99.90;;;;;;4165562;28;20063;-69
2021/06/25 08:19:25;;;;;;;13.00;9.98;;;19.70;99.90;;;;;;4165969;28;20044;-69
2021/06/25 08:21:28;;;;;;;14.38;9.95;;;19.70;99.90;;;;;;4148985;28;20516;-70
2021/06/25 08:23:29;;;;;;;16.85;10.80;;;19.80;99.90;;;;;;4164180;28;20025;-69
2021/06/25 08:25:29;;;;;;;19.40;12.60;;;19.90;99.90;;;;;;4163383;28;20485;-69
2021/06/25 08:27:30;;;;;;;15.60;11.35;;;19.90;99.90;;;;;;4165650;28;20037;-69
2021/06/25 08:29:31;;;;;;;17.90;11.40;;;19.90;99.90;;;;;;4158049;28;20702;-69
2021/06/25 08:31:31;;;;;;;12.75;9.77;;;20.00;99.90;;;;;;4163917;28;20055;-69
2021/06/25 08:33:32;;;;;;;13.70;9.55;;;20.00;99.90;;;;;;4164035;28;20142;-69
2021/06/25 08:35:33;;;;;;;14.80;9.70;;;20.10;99.90;;;;;;4165621;28;20041;-69
2021/06/25 08:37:34;;;;;;;12.85;8.95;;;20.10;99.90;;;;;;4166669;28;20485;-69
2021/06/25 08:39:34;;;;;;;17.42;10.85;;;20.10;99.90;;;;;;4165534;28;20393;-69
2021/06/25 08:41:36;;;;;;;16.05;9.10;;;20.10;99.90;;;;;;4163157;28;20060;-69
2021/06/25 08:43:37;;;;;;;12.98;9.65;;;20.10;99.90;;;;;;4163560;28;20208;-69
2021/06/25 08:45:38;;;;;;;14.55;9.73;;;20.10;99.90;;;;;;4165623;28;20065;-69
2021/06/25 08:47:45;;;;;;;15.80;10.73;;;20.10;99.90;;;;;;4163996;28;20544;-69
2021/06/25 08:49:49;;;;;;;13.32;9.80;;;20.10;99.90;;;;;;4164849;28;20041;-69
2021/06/25 08:51:50;;;;;;;14.98;10.32;;;20.10;99.90;;;;;;4160837;28;20425;-69
2021/06/25 08:53:52;;;;;;;12.27;8.85;;;20.10;99.90;;;;;;4164982;28;20075;-70
2021/06/25 08:55:53;;;;;;;13.60;9.48;;;20.10;99.90;;;;;;4164144;28;20033;-69
2021/06/25 08:57:53;;;;;;;12.68;9.32;;;20.10;99.90;;;;;;4162878;28;20041;-69
2021/06/25 08:59:54;;;;;;;13.60;10.15;;;20.10;99.90;;;;;;4162970;28;20512;-69
2021/06/25 09:01:55;;;;;;;20.00;10.23;;;20.10;99.90;;;;;;4162923;28;20520;-69
2021/06/25 09:03:56;;;;;;;15.98;9.80;;;20.10;99.90;;;;;;4165712;28;20067;-69
2021/06/25 09:06:14;;;;;;;15.00;9.60;;;20.10;99.90;;;;;;4166235;28;20116;-70
2021/06/25 09:08:29;;;;;;;15.35;10.20;;;20.10;99.90;;;;;;4165897;28;20517;-69
2021/06/25 09:10:35;;;;;;;13.27;9.13;;;20.00;99.90;;;;;;4166424;28;20099;-69
2021/06/25 09:12:36;;;;;;;17.15;10.23;;;20.00;99.90;;;;;;4167693;28;20138;-69
2021/06/25 09:14:56;;;;;;;12.85;9.15;;;20.00;99.90;;;;;;4168522;28;20044;-69
2021/06/25 09:17:01;;;;;;;14.70;9.07;;;20.10;99.90;;;;;;4167446;28;20118;-69
2021/06/25 09:19:04;;;;;;;15.02;9.68;;;20.10;99.90;;;;;;4184416;28;20114;-69
2021/06/25 09:21:11;;;;;;;15.20;9.50;;;20.10;99.90;;;;;;4183803;28;20560;-70
2021/06/25 09:23:29;;;;;;;13.02;8.10;;;20.20;99.90;;;;;;4166115;28;20040;-69
2021/06/25 09:25:30;;;;;;;12.13;8.77;;;20.20;99.90;;;;;;4167167;28;20091;-70
2021/06/25 09:27:32;;;;;;;14.00;9.30;;;20.20;99.90;;;;;;4161831;28;20390;-69
2021/06/25 09:29:35;;;;;;;16.25;9.20;;;20.20;99.90;;;;;;4167701;28;20052;-69
2021/06/25 09:31:36;;;;;;;12.85;8.60;;;20.30;99.90;;;;;;4168203;28;20551;-69
2021/06/25 09:33:49;;;;;;;12.77;9.70;;;20.30;99.90;;;;;;4167317;28;20076;-69
2021/06/25 09:35:54;;;;;;;13.07;10.15;;;20.40;99.90;;;;;;4165218;28;20625;-69
2021/06/25 09:37:55;;;;;;;13.75;9.27;;;20.40;99.90;;;;;;4167749;28;20033;-69
2021/06/25 09:40:03;;;;;;;11.50;8.55;;;20.40;99.90;;;;;;4165978;28;20033;-69
2021/06/25 09:42:14;;;;;;;10.73;8.52;;;20.50;99.90;;;;;;4162871;28;20032;-70
2021/06/25 09:44:18;;;;;;;11.85;8.63;;;20.50;99.90;;;;;;4164962;28;20472;-70
2021/06/25 09:46:31;;;;;;;11.80;8.27;;;20.50;99.90;;;;;;4166416;28;20128;-69
2021/06/25 09:48:58;;;;;;;10.93;7.47;;;20.60;99.90;;;;;;4165853;28;20025;-69
2021/06/25 09:51:10;;;;;;;12.32;7.63;;;20.70;99.90;;;;;;4167663;28;20029;-69
2021/06/25 09:53:11;;;;;;;11.13;8.05;;;20.80;99.90;;;;;;4169211;28;20047;-69
2021/06/25 09:55:12;;;;;;;11.35;7.28;;;20.90;99.90;;;;;;4166788;28;20061;-70
2021/06/25 09:57:15;;;;;;;11.38;7.93;;;21.00;99.90;;;;;;4168865;28;20447;-69
2021/06/25 10:01:25;;;;;;;10.25;7.40;;;21.20;99.90;;;;;;4167247;28;19943;-70
2021/06/25 10:03:25;;;;;;;12.05;9.10;;;21.30;99.90;;;;;;4167230;28;20033;-70
2021/06/25 10:05:28;;;;;;;13.00;9.07;;;21.40;99.90;;;;;;4166137;28;20365;-70
2021/06/25 10:07:31;;;;;;;16.27;8.27;;;21.40;99.90;;;;;;4169135;28;20398;-70
2021/06/25 10:09:31;;;;;;;9.98;7.63;;;21.50;99.90;;;;;;4167114;28;20511;-70
2021/06/25 10:11:33;;;;;;;12.18;7.85;;;21.60;99.90;;;;;;4169055;28;20040;-70
2021/06/25 10:13:37;;;;;;;11.13;7.78;;;21.70;99.90;;;;;;4168279;28;20103;-70
2021/06/25 10:15:37;;;;;;;11.60;7.95;;;21.80;99.90;;;;;;4165725;28;20059;-70
2021/06/25 10:17:38;;;;;;;13.73;9.15;;;22.00;99.90;;;;;;4163840;28;20120;-69
2021/06/25 10:19:47;;;;;;;18.42;8.68;;;22.10;99.90;;;;;;4166987;28;20371;-70
2021/06/25 10:21:49;;;;;;;10.48;7.25;;;22.20;99.90;;;;;;4166706;28;20586;-69
2021/06/25 10:23:54;;;;;;;11.50;7.60;;;22.20;99.90;;;;;;4163102;28;20386;-69
2021/06/25 10:25:55;;;;;;;9.85;6.90;;;22.30;99.90;;;;;;4164061;28;20078;-70
2021/06/25 10:27:56;;;;;;;11.40;7.50;;;22.50;99.90;;;;;;4168955;28;20484;-70
2021/06/25 10:29:58;;;;;;;9.63;7.28;;;22.50;99.90;;;;;;4167479;28;20136;-70
2021/06/25 10:32:01;;;;;;;9.30;6.65;;;22.50;99.60;;;;;;4162185;28;20480;-70
2021/06/25 10:34:02;;;;;;;9.30;7.13;;;22.60;99.90;;;;;;4163946;28;20037;-70